Etusivu
METAR-TAF:

METAR-TAF

Lentoasemat :

L.O. Simenstad Municipal Airport

Osceola, Wisconsin, Yhdysvallat

Leveyspiiri: 45-18-31N, Pituuspiiri: 092-41-24W, korkeus merenpinnasta: 275 m

Tämänhetkinen sää

Tämä raportti tehtiin 19 minuuttia sitten, kello 04.15 UTC
Tuuli 5 kn pohjoisesta
Lämpötila 5°C
Kosteus 93%
Ilmanpaine 1020 hPa
Näkyvyys: 16.1 km
selkeää

METAR: KOEO 230415Z AUTO 35005KT 10SM CLR 05/04 A3013 RMK AO2 T00500036 PWINO

Aika: 23:34 (04:34 UTC)


TAF: puuttuu

Säähavainnot ja -ennusteet yli 4000 lentoasemalta (METAR- ja TAF-raportit).

Käytössä olevat sääasemat on merkitty karttaan keltaisilla ja punaisilla pisteillä.

Aseta hiiri pisteen päälle nähdäksesi sääaseman nimen.

Klikkaa sitten nähdäksesi säähavainnot ja -ennusteet.

Kartan vaihtaminen: klikkaa mustalla rastilla varustettuja vihreitä pisteitä, niin voit zoomata sisään; viivalla varustettua vihreää pistettä, niin voit zoomata ulos tai vihreitä nuolia, niin pääset viereisille kartoille.


METAR-TAF: